Time;durP1;ratioP1;P1;durP2;ratioP2;P2;SDS_P1;SDS_P2;PMS_P1;PMS_P2;Temp;Humidity;BMP_temperature;BMP_pressure;BME280_temperature;BME280_humidity;BME280_pressure;Samples;Min_cycle;Max_cycle;Signal;HPM_P1;HPM_P2
2023/09/16 00:00:08;;;;;;;10.85;8.35;;;;;;;12.57;95.18;101519.41;6222369;22;20068;-78
2023/09/16 00:02:35;;;;;;;14.65;8.80;;;;;;;12.54;95.18;101512.28;6249213;22;20024;-79
2023/09/16 00:05:03;;;;;;;9.10;8.20;;;;;;;12.54;95.05;101512.28;6222791;22;20021;-78
2023/09/16 00:07:31;;;;;;;12.63;8.75;;;;;;;12.54;95.67;101509.59;6248273;22;20027;-78
2023/09/16 00:09:58;;;;;;;9.05;8.15;;;;;;;12.52;95.65;101508.53;6249324;22;20013;-79
2023/09/16 00:12:25;;;;;;;9.48;8.48;;;;;;;12.49;95.79;101512.81;6221847;22;20024;-78
2023/09/16 00:14:52;;;;;;;14.15;9.10;;;;;;;12.47;96.41;101517.09;6222171;22;20027;-78
2023/09/16 00:17:19;;;;;;;10.82;9.32;;;;;;;12.45;96.14;101519.47;6221398;22;20020;-78
2023/09/16 00:19:46;;;;;;;11.05;9.00;;;;;;;12.42;96.43;101514.97;6222646;22;20458;-79
2023/09/16 00:22:13;;;;;;;10.43;9.10;;;;;;;12.40;96.39;101525.34;6221772;22;20048;-78
2023/09/16 00:24:40;;;;;;;10.15;8.73;;;;;;;12.36;96.29;101520.16;6221830;22;20431;-79
2023/09/16 00:27:07;;;;;;;13.57;8.32;;;;;;;12.34;96.31;101517.91;6221778;22;20031;-79
2023/09/16 00:29:34;;;;;;;14.07;7.88;;;;;;;12.32;96.17;101516.84;6248364;22;20319;-79
2023/09/16 00:32:04;;;;;;;8.27;7.55;;;;;;;12.31;96.20;101513.44;6248988;22;20038;-79
2023/09/16 00:34:31;;;;;;;8.65;7.50;;;;;;;12.26;96.33;101508.63;6248284;22;20111;-79
2023/09/16 00:36:58;;;;;;;7.95;7.22;;;;;;;12.24;96.05;101499.56;6222450;22;20435;-78
2023/09/16 00:39:26;;;;;;;7.63;6.78;;;;;;;12.24;96.16;101499.56;6221649;22;20084;-79
2023/09/16 00:41:53;;;;;;;10.18;6.97;;;;;;;12.21;96.83;101495.84;6249078;22;20017;-79
2023/09/16 00:44:20;;;;;;;9.25;7.25;;;;;;;12.18;96.53;101488.69;6221025;22;20025;-78
2023/09/16 00:46:48;;;;;;;9.32;7.80;;;;;;;12.19;96.46;101487.50;6221769;22;20095;-79
2023/09/16 00:49:15;;;;;;;8.63;7.55;;;;;;;12.16;96.51;101485.72;6221407;22;20071;-78
2023/09/16 00:51:44;;;;;;;7.93;7.20;;;;;;;12.13;96.60;101486.56;6221613;22;20092;-79
2023/09/16 00:54:12;;;;;;;7.90;7.05;;;;;;;12.07;97.23;101487.53;6248926;22;20069;-78
2023/09/16 00:56:39;;;;;;;11.82;7.50;;;;;;;12.03;97.27;101479.66;6221586;22;20032;-79
2023/09/16 00:59:06;;;;;;;10.05;7.10;;;;;;;12.02;97.15;101481.56;6248880;22;20023;-79
2023/09/16 01:01:37;;;;;;;7.40;6.70;;;;;;;12.03;97.12;101477.72;6248571;22;20422;-78
2023/09/16 01:04:04;;;;;;;7.95;6.72;;;;;;;12.02;97.28;101483.50;6221349;22;20068;-79
2023/09/16 01:06:31;;;;;;;9.07;7.13;;;;;;;12.04;97.08;101489.16;6248573;22;20020;-79
2023/09/16 01:08:58;;;;;;;10.38;7.90;;;;;;;12.00;98.20;101502.59;6221848;22;20067;-79
2023/09/16 01:11:26;;;;;;;8.65;6.85;;;;;;;11.96;98.07;101496.66;6220932;22;20785;-79
2023/09/16 01:13:53;;;;;;;6.90;6.20;;;;;;;11.96;97.62;101490.59;6196840;22;20028;-79
2023/09/16 01:16:40;;;;;;;7.05;6.05;;;;;;;11.95;97.50;101497.09;6221227;22;20023;-78
2023/09/16 01:19:19;;;;;;;7.43;6.75;;;;;;;11.94;97.62;101492.94;6247932;22;20021;-78
2023/09/16 01:21:47;;;;;;;7.20;6.50;;;;;;;11.88;97.54;101489.31;6248923;22;20017;-79
2023/09/16 01:24:23;;;;;;;7.28;6.57;;;;;;;11.83;97.92;101489.84;6248303;22;20023;-79
2023/09/16 01:26:50;;;;;;;8.20;7.05;;;;;;;11.79;98.30;101489.22;6248917;22;20017;-79
2023/09/16 01:29:19;;;;;;;8.27;7.15;;;;;;;11.78;99.03;101493.06;6248178;22;20013;-79
2023/09/16 01:31:46;;;;;;;8.75;7.38;;;;;;;11.76;98.25;101490.03;6221794;22;20048;-80
2023/09/16 01:34:22;;;;;;;8.15;7.35;;;;;;;11.75;98.49;101486.63;6220420;22;20021;-80
2023/09/16 01:36:54;;;;;;;11.85;8.02;;;;;;;11.74;98.61;101490.47;6221906;22;20048;-79
2023/09/16 01:39:23;;;;;;;8.20;7.40;;;;;;;11.74;98.65;101474.47;6220938;22;20024;-79
2023/09/16 01:41:52;;;;;;;7.68;7.07;;;;;;;11.73;99.18;101480.22;6193623;23;20025;-79
2023/09/16 01:44:18;;;;;;;8.60;7.60;;;;;;;11.72;99.56;101473.41;6188803;23;20084;-79
2023/09/16 01:46:45;;;;;;;14.70;7.35;;;;;;;11.69;99.38;101470.41;6187723;23;20022;-79
2023/09/16 01:49:12;;;;;;;7.75;7.05;;;;;;;11.67;99.46;101472.00;6188550;23;20092;-79
2023/09/16 01:51:38;;;;;;;8.18;6.97;;;;;;;11.65;99.79;101464.44;6187278;23;20025;-79
2023/09/16 01:54:05;;;;;;;8.52;7.10;;;;;;;11.61;100.00;101463.81;6189329;23;20426;-79
2023/09/16 01:56:32;;;;;;;8.00;7.22;;;;;;;11.61;100.00;101473.72;6187311;23;20077;-79
2023/09/16 01:58:58;;;;;;;7.65;6.95;;;;;;;11.58;100.00;101477.28;6187651;23;20400;-79
2023/09/16 02:01:25;;;;;;;7.88;7.18;;;;;;;11.56;100.00;101469.69;6186248;23;20013;-79
2023/09/16 02:03:52;;;;;;;7.65;7.05;;;;;;;11.54;99.64;101477.38;6187275;23;20021;-79
2023/09/16 02:06:19;;;;;;;7.60;6.90;;;;;;;11.52;99.68;101471.72;6162346;23;20077;-79
2023/09/16 02:08:47;;;;;;;7.90;7.20;;;;;;;11.52;99.35;101474.38;6187255;23;20061;-79
2023/09/16 02:11:15;;;;;;;9.40;7.30;;;;;;;11.51;99.72;101470.22;6186966;23;20021;-79
2023/09/16 02:13:41;;;;;;;8.75;7.15;;;;;;;11.51;99.59;101467.56;6188920;23;20337;-79
2023/09/16 02:16:10;;;;;;;7.75;7.00;;;;;;;11.51;99.85;101472.16;6188293;23;20022;-79
2023/09/16 02:18:37;;;;;;;8.20;7.43;;;;;;;11.49;100.00;101471.84;6186816;23;20044;-79
2023/09/16 02:21:04;;;;;;;8.00;7.28;;;;;;;11.45;99.73;101466.59;6187550;23;20021;-79
2023/09/16 02:23:31;;;;;;;9.55;6.80;;;;;;;11.44;99.11;101475.78;6187052;23;20024;-79
2023/09/16 02:26:01;;;;;;;8.07;6.85;;;;;;;11.44;99.51;101464.38;6162844;23;20026;-79
2023/09/16 02:28:28;;;;;;;7.03;6.45;;;;;;;11.40;99.04;101477.06;6188573;23;20024;-79
2023/09/16 02:30:56;;;;;;;8.38;6.35;;;;;;;11.39;99.81;101467.56;6162121;23;20131;-79
2023/09/16 02:33:23;;;;;;;7.40;6.10;;;;;;;11.39;99.71;101478.97;6161790;23;20104;-79
2023/09/16 02:35:49;;;;;;;7.00;6.40;;;;;;;11.37;99.78;101475.97;6187688;23;20017;-79
2023/09/16 02:38:16;;;;;;;7.20;6.53;;;;;;;11.32;99.83;101474.59;6187175;23;20021;-79
2023/09/16 02:40:43;;;;;;;10.25;6.85;;;;;;;11.32;100.00;101484.50;6207359;22;20510;-78
2023/09/16 02:43:11;;;;;;;6.80;6.20;;;;;;;11.30;99.84;101476.19;6221707;22;20447;-78
2023/09/16 02:45:40;;;;;;;7.18;6.55;;;;;;;11.29;99.62;101474.69;6221715;22;20490;-79
2023/09/16 02:48:07;;;;;;;7.53;6.28;;;;;;;11.25;99.92;101477.47;6222072;22;20075;-79
2023/09/16 02:50:37;;;;;;;6.43;5.90;;;;;;;11.27;100.00;101474.38;6222042;22;20016;-79
2023/09/16 02:53:05;;;;;;;8.38;6.78;;;;;;;11.25;100.00;101472.13;6222811;22;20016;-79
2023/09/16 02:55:32;;;;;;;6.82;6.13;;;;;;;11.24;99.93;101469.91;6222026;22;20087;-79
2023/09/16 02:58:00;;;;;;;7.50;6.75;;;;;;;11.21;99.92;101476.81;6222531;22;20370;-79
2023/09/16 03:00:27;;;;;;;7.05;6.55;;;;;;;11.20;99.81;101472.66;6221291;22;20100;-79
2023/09/16 03:02:53;;;;;;;7.07;6.47;;;;;;;11.19;100.00;101473.88;6222785;22;20075;-79
2023/09/16 03:05:21;;;;;;;7.43;6.72;;;;;;;11.17;100.00;101468.22;6196709;22;20482;-78
2023/09/16 03:07:51;;;;;;;7.43;6.80;;;;;;;11.14;100.00;101466.38;6197493;22;20017;-78
2023/09/16 03:10:18;;;;;;;7.40;6.60;;;;;;;11.14;100.00;101460.31;6221788;22;20023;-78
2023/09/16 03:12:44;;;;;;;8.43;6.57;;;;;;;11.11;100.00;101464.56;6222528;22;20037;-78
2023/09/16 03:15:11;;;;;;;7.95;7.15;;;;;;;11.11;100.00;101458.50;6221658;22;20021;-78
2023/09/16 03:17:38;;;;;;;7.35;6.68;;;;;;;11.09;100.00;101458.19;6222082;22;20052;-78
2023/09/16 03:20:11;;;;;;;7.97;7.20;;;;;;;11.05;100.00;101457.53;6198476;22;20017;-78
2023/09/16 03:22:37;;;;;;;7.97;7.18;;;;;;;11.02;100.00;101454.53;6222048;22;20048;-78
2023/09/16 03:25:05;;;;;;;7.65;6.95;;;;;;;11.02;100.00;101451.13;6222397;22;20017;-78
2023/09/16 03:27:32;;;;;;;7.78;6.95;;;;;;;11.00;100.00;101446.22;6222627;22;20012;-79
2023/09/16 03:29:58;;;;;;;9.73;7.70;;;;;;;10.99;100.00;101451.97;6249126;22;20012;-79
2023/09/16 03:32:29;;;;;;;9.73;7.40;;;;;;;10.97;100.00;101451.66;6221374;22;20024;-79
2023/09/16 03:34:56;;;;;;;8.07;7.30;;;;;;;10.95;100.00;101452.06;6222407;22;20500;-79
2023/09/16 03:37:23;;;;;;;7.45;6.85;;;;;;;10.93;100.00;101451.00;6221689;22;20937;-79
2023/09/16 03:39:57;;;;;;;10.00;7.57;;;;;;;10.92;100.00;101447.59;6222282;22;20021;-79
2023/09/16 03:42:23;;;;;;;8.00;7.10;;;;;;;10.93;100.00;101449.09;6221412;22;20016;-79
2023/09/16 03:44:50;;;;;;;8.18;7.13;;;;;;;10.92;100.00;101442.25;6221919;22;20044;-78
2023/09/16 03:47:17;;;;;;;7.68;6.88;;;;;;;10.92;100.00;101436.94;6249467;22;20445;-79
2023/09/16 03:49:43;;;;;;;7.75;6.95;;;;;;;10.92;100.00;101436.19;6222296;22;20027;-78
2023/09/16 03:52:10;;;;;;;7.85;7.20;;;;;;;10.91;100.00;101429.38;6221936;22;20024;-79
2023/09/16 03:54:37;;;;;;;9.70;7.40;;;;;;;10.90;100.00;101436.63;6196963;22;20473;-78
2023/09/16 03:57:04;;;;;;;7.63;6.93;;;;;;;10.87;100.00;101429.47;6197224;22;20040;-78
2023/09/16 03:59:30;;;;;;;9.05;7.18;;;;;;;10.85;100.00;101426.47;6221149;22;20029;-79
2023/09/16 04:01:57;;;;;;;7.25;6.65;;;;;;;10.84;100.00;101421.56;6249340;22;20036;-78
2023/09/16 04:04:23;;;;;;;13.57;7.18;;;;;;;10.82;100.00;101424.66;6248080;22;20041;-79
2023/09/16 04:06:50;;;;;;;8.48;7.07;;;;;;;10.82;100.00;101422.00;6249659;22;20015;-79
2023/09/16 04:09:16;;;;;;;8.65;7.80;;;;;;;10.81;100.00;101422.44;6248898;22;20479;-79
2023/09/16 04:11:43;;;;;;;7.47;6.70;;;;;;;10.79;100.00;101422.88;6197081;22;20021;-78
2023/09/16 04:14:10;;;;;;;8.02;7.13;;;;;;;10.76;100.00;101423.72;6248542;22;20020;-78
2023/09/16 04:16:39;;;;;;;7.53;6.80;;;;;;;10.76;100.00;101422.97;6249067;22;20094;-78
2023/09/16 04:19:05;;;;;;;8.40;6.82;;;;;;;10.77;100.00;101427.88;6221914;22;20020;-78
2023/09/16 04:21:32;;;;;;;8.07;7.28;;;;;;;10.76;100.00;101421.06;6196669;22;20059;-78
2023/09/16 04:23:58;;;;;;;7.90;7.20;;;;;;;10.77;100.00;101421.81;6221841;22;20469;-78
2023/09/16 04:26:25;;;;;;;9.05;6.93;;;;;;;10.75;100.00;101422.22;6220812;22;20432;-78
2023/09/16 04:28:52;;;;;;;7.90;7.07;;;;;;;10.75;100.00;101421.47;6222176;22;20028;-78
2023/09/16 04:31:20;;;;;;;7.35;6.65;;;;;;;10.72;100.00;101423.06;6221277;22;20021;-78
2023/09/16 04:33:47;;;;;;;7.28;6.53;;;;;;;10.71;100.00;101421.56;6221882;22;20044;-78
2023/09/16 04:36:16;;;;;;;7.88;7.10;;;;;;;10.68;100.00;101428.50;6222419;22;20311;-78
2023/09/16 04:38:42;;;;;;;7.85;7.05;;;;;;;10.67;100.00;101427.00;6221626;22;20021;-78
2023/09/16 04:41:09;;;;;;;7.57;6.80;;;;;;;10.66;100.00;101428.16;6247625;22;20017;-78
2023/09/16 04:43:35;;;;;;;14.63;6.63;;;;;;;10.65;100.00;101425.94;6196721;22;20083;-78
2023/09/16 04:46:04;;;;;;;7.45;6.68;;;;;;;10.63;100.00;101428.25;6221696;22;20016;-78
2023/09/16 04:48:35;;;;;;;7.68;6.95;;;;;;;10.62;100.00;101426.78;6221863;22;20425;-78
2023/09/16 04:51:03;;;;;;;7.63;6.53;;;;;;;10.61;100.00;101423.38;6221853;22;20028;-78
2023/09/16 04:53:32;;;;;;;7.07;6.47;;;;;;;10.60;100.00;101421.13;6220665;22;20029;-78
2023/09/16 04:56:05;;;;;;;10.55;7.15;;;;;;;10.57;100.00;101422.72;6221105;22;20059;-78
2023/09/16 04:58:35;;;;;;;8.13;7.15;;;;;;;10.56;100.00;101417.81;6221501;22;20040;-79
2023/09/16 05:01:05;;;;;;;7.20;6.50;;;;;;;10.55;100.00;101421.63;6221702;22;20078;-78
2023/09/16 05:03:33;;;;;;;7.57;6.85;;;;;;;10.51;100.00;101423.66;6221600;22;20021;-78
2023/09/16 05:05:59;;;;;;;9.25;6.82;;;;;;;10.49;100.00;101418.00;6221862;22;20056;-78
2023/09/16 05:08:29;;;;;;;8.00;7.30;;;;;;;10.51;100.00;101421.72;6196552;22;20020;-78
2023/09/16 05:10:57;;;;;;;8.00;7.18;;;;;;;10.51;100.00;101418.31;6220834;22;20051;-78
2023/09/16 05:13:25;;;;;;;10.35;6.90;;;;;;;10.51;100.00;101413.75;6220521;22;20021;-78
2023/09/16 05:15:52;;;;;;;7.90;6.85;;;;;;;10.52;100.00;101417.16;6222261;22;20370;-78
2023/09/16 05:18:19;;;;;;;9.25;6.88;;;;;;;10.51;100.00;101418.31;6197223;22;20031;-78
2023/09/16 05:20:49;;;;;;;6.93;6.32;;;;;;;10.51;100.00;101416.41;6222553;22;20451;-78
2023/09/16 05:23:16;;;;;;;7.82;6.35;;;;;;;10.50;100.00;101422.16;6222754;22;20048;-78
2023/09/16 05:25:47;;;;;;;6.88;6.28;;;;;;;10.50;100.00;101422.16;6197199;22;20047;-78
2023/09/16 05:28:17;;;;;;;8.18;6.63;;;;;;;10.50;100.00;101422.16;6222791;22;20021;-78
2023/09/16 05:30:44;;;;;;;7.38;6.65;;;;;;;10.50;100.00;101427.47;6197726;22;20017;-78
2023/09/16 05:33:13;;;;;;;7.22;6.53;;;;;;;10.48;100.00;101427.91;6222237;22;20136;-78
2023/09/16 05:35:40;;;;;;;6.95;6.28;;;;;;;10.49;100.00;101431.31;6222716;22;20091;-78
2023/09/16 05:38:08;;;;;;;7.00;6.40;;;;;;;10.51;100.00;101431.63;6222431;22;20099;-78
2023/09/16 05:40:38;;;;;;;11.10;7.30;;;;;;;10.51;100.00;101431.63;6221551;22;20025;-78
2023/09/16 05:43:05;;;;;;;7.65;6.95;;;;;;;10.52;100.00;101431.22;6222757;22;20025;-78
2023/09/16 05:45:32;;;;;;;6.85;6.20;;;;;;;10.52;100.00;101433.13;6222344;22;20481;-78
2023/09/16 05:48:02;;;;;;;7.93;7.22;;;;;;;10.51;100.00;101432.38;6222557;22;20020;-78
2023/09/16 05:50:34;;;;;;;11.25;8.07;;;;;;;10.55;100.00;101432.28;6222003;22;20025;-78
2023/09/16 05:53:05;;;;;;;7.38;6.78;;;;;;;10.59;100.00;101430.28;6222858;22;20104;-78
2023/09/16 05:55:38;;;;;;;9.60;6.28;;;;;;;10.62;100.00;101438.16;6197093;22;20016;-78
2023/09/16 05:58:11;;;;;;;7.30;6.70;;;;;;;10.66;100.00;101440.72;6198028;22;20024;-78
2023/09/16 06:00:39;;;;;;;7.78;7.03;;;;;;;10.68;100.00;101439.16;6222203;22;20442;-78
2023/09/16 06:03:06;;;;;;;7.45;6.75;;;;;;;10.71;100.00;101444.81;6222263;22;20078;-77
2023/09/16 06:05:33;;;;;;;9.73;7.55;;;;;;;10.73;100.00;101440.53;6222306;22;20017;-78
2023/09/16 06:08:01;;;;;;;7.28;6.60;;;;;;;10.75;100.00;101448.13;6249415;22;20099;-79
2023/09/16 06:10:28;;;;;;;8.43;7.18;;;;;;;10.80;100.00;101445.66;6221721;22;20037;-78
2023/09/16 06:12:55;;;;;;;8.43;7.60;;;;;;;11.26;100.00;101454.97;6249515;22;20032;-78
2023/09/16 06:15:22;;;;;;;9.15;8.25;;;;;;;12.46;98.58;101452.25;6221516;22;20486;-79
2023/09/16 06:18:14;;;;;;;9.60;8.32;;;;;;;12.27;97.37;101456.00;6249814;22;20083;-80
2023/09/16 06:20:42;;;;;;;8.95;8.15;;;;;;;12.37;97.48;101456.81;6222603;22;20020;-79
2023/09/16 06:23:09;;;;;;;9.75;8.55;;;;;;;13.28;94.71;101457.31;6221574;22;20100;-79
2023/09/16 06:25:35;;;;;;;9.52;8.57;;;;;;;14.17;89.34;101461.81;6222121;22;20024;-79
2023/09/16 06:28:03;;;;;;;10.32;8.90;;;;;;;14.62;86.55;101469.09;6222181;22;20028;-79
2023/09/16 06:30:31;;;;;;;15.18;9.48;;;;;;;14.72;85.53;101464.47;6221506;22;20410;-79
2023/09/16 06:32:58;;;;;;;10.38;8.95;;;;;;;14.83;85.71;101462.03;6221488;22;20028;-80
2023/09/16 06:35:25;;;;;;;10.10;9.02;;;;;;;14.81;85.56;101473.19;6221729;22;20493;-79
2023/09/16 06:37:52;;;;;;;12.15;9.90;;;;;;;14.74;85.83;101468.19;6249426;22;20084;-79
2023/09/16 06:40:19;;;;;;;10.50;8.82;;;;;;;14.48;87.21;101467.00;6248718;22;20013;-79
2023/09/16 06:42:45;;;;;;;10.00;8.88;;;;;;;14.29;89.22;101471.63;6249827;22;20454;-80
2023/09/16 06:45:12;;;;;;;10.23;8.88;;;;;;;14.08;90.80;101467.16;6249181;22;20489;-79
2023/09/16 06:47:39;;;;;;;12.23;8.82;;;;;;;13.89;92.00;101466.41;6249612;22;20012;-78
2023/09/16 06:50:08;;;;;;;12.38;9.90;;;;;;;13.76;92.95;101466.53;6222550;22;20446;-78
2023/09/16 06:52:35;;;;;;;11.23;9.73;;;;;;;13.64;93.98;101465.44;6249051;22;20048;-79
2023/09/16 06:55:02;;;;;;;12.23;9.82;;;;;;;13.56;95.38;101461.59;6250040;22;20013;-81
2023/09/16 06:57:29;;;;;;;13.85;9.43;;;;;;;13.52;96.20;101452.97;6249084;22;20013;-80
2023/09/16 07:00:14;;;;;;;10.90;9.90;;;;;;;13.47;97.14;101453.53;6249369;22;20016;-80
2023/09/16 07:02:41;;;;;;;15.07;9.98;;;;;;;13.45;97.88;101461.25;6249429;22;20048;-82
2023/09/16 07:05:10;;;;;;;12.32;9.82;;;;;;;13.45;98.37;101457.84;6249470;22;20104;-82
2023/09/16 07:07:37;;;;;;;13.73;10.27;;;;;;;13.44;99.04;101459.78;6249191;22;20040;-82
2023/09/16 07:10:04;;;;;;;11.45;10.18;;;;;;;13.46;99.77;101457.41;6222654;22;20021;-82
2023/09/16 07:12:31;;;;;;;12.52;9.90;;;;;;;13.50;100.00;101466.03;6249401;22;20478;-82
2023/09/16 07:14:57;;;;;;;17.08;10.48;;;;;;;13.55;100.00;101462.78;6252117;22;20039;-82
2023/09/16 07:17:24;;;;;;;16.20;10.18;;;;;;;13.59;100.00;101465.31;6250672;22;20017;-80
2023/09/16 07:19:50;;;;;;;11.13;9.90;;;;;;;13.76;100.00;101471.13;6249738;22;20423;-82
2023/09/16 07:22:20;;;;;;;11.63;10.52;;;;;;;14.05;100.00;101473.38;6248897;22;20013;-84
2023/09/16 07:24:46;;;;;;;12.40;11.20;;;;;;;14.33;100.00;101470.28;6222160;22;20532;-83
2023/09/16 07:27:13;;;;;;;11.88;10.70;;;;;;;14.52;100.00;101471.03;6221983;22;20024;-81
2023/09/16 07:29:39;;;;;;;12.07;10.73;;;;;;;14.61;99.36;101471.03;6249459;22;20559;-82
2023/09/16 07:32:06;;;;;;;14.73;10.48;;;;;;;14.74;99.81;101470.13;6249215;22;20021;-82
2023/09/16 07:34:33;;;;;;;17.38;10.82;;;;;;;14.96;99.94;101470.63;6249092;22;20020;-80
2023/09/16 07:37:03;;;;;;;14.80;11.05;;;;;;;15.14;100.00;101467.91;6249055;22;20458;-83
2023/09/16 07:39:30;;;;;;;18.27;11.80;;;;;;;15.27;99.74;101470.38;6248272;22;20035;-84
2023/09/16 07:41:57;;;;;;;14.43;11.82;;;;;;;15.38;99.42;101465.25;6249707;22;20017;-83
2023/09/16 07:44:23;;;;;;;12.80;11.07;;;;;;;15.45;99.15;101466.84;6248957;22;20017;-83
2023/09/16 07:46:50;;;;;;;12.82;11.20;;;;;;;15.43;98.83;101470.00;6223054;22;20041;-84
2023/09/16 07:49:17;;;;;;;15.70;11.68;;;;;;;15.47;98.89;101470.56;6249158;22;20016;-83
2023/09/16 07:51:46;;;;;;;14.10;11.38;;;;;;;15.57;98.36;101469.38;6249035;22;20463;-83
2023/09/16 07:54:13;;;;;;;15.75;12.13;;;;;;;15.72;97.94;101476.72;6249221;22;20023;-84
2023/09/16 07:56:40;;;;;;;16.70;11.60;;;;;;;15.93;97.29;101473.00;6249381;22;20048;-83
2023/09/16 07:59:07;;;;;;;16.23;10.98;;;;;;;16.15;95.62;101481.47;6221814;22;20435;-83
2023/09/16 08:01:33;;;;;;;15.05;11.35;;;;;;;16.38;95.47;101482.66;6249278;22;20044;-85
2023/09/16 08:04:00;;;;;;;13.68;10.95;;;;;;;16.54;94.42;101482.19;6248845;22;20417;-83
2023/09/16 08:06:27;;;;;;;13.18;11.75;;;;;;;16.71;93.96;101487.13;6248684;22;20012;-82
2023/09/16 08:08:54;;;;;;;15.13;11.38;;;;;;;16.82;93.15;101490.00;6222267;22;20508;-83
2023/09/16 08:11:21;;;;;;;12.98;11.73;;;;;;;16.87;91.51;101498.16;6221825;22;20028;-82
2023/09/16 08:13:47;;;;;;;13.00;11.15;;;;;;;16.75;91.57;101496.50;6222827;22;20021;-81
2023/09/16 08:16:14;;;;;;;14.77;11.77;;;;;;;16.64;92.04;101496.31;6249074;22;20017;-80
2023/09/16 08:18:41;;;;;;;15.88;11.77;;;;;;;16.58;92.49;101504.25;6248339;22;20013;-81
2023/09/16 08:21:08;;;;;;;15.55;12.00;;;;;;;16.57;92.24;101505.44;6249053;22;20071;-79
2023/09/16 08:23:34;;;;;;;13.05;11.65;;;;;;;16.69;92.96;101508.38;6249023;22;20395;-82
2023/09/16 08:26:01;;;;;;;13.73;11.82;;;;;;;16.79;92.39;101504.38;6197816;22;20071;-81
2023/09/16 08:28:28;;;;;;;12.52;11.05;;;;;;;16.89;92.18;101511.13;6249824;22;20451;-83
2023/09/16 08:30:55;;;;;;;20.42;11.88;;;;;;;17.06;90.84;101508.72;6223684;22;20126;-81
2023/09/16 08:33:21;;;;;;;13.38;10.85;;;;;;;17.32;88.16;101507.66;6248044;22;21171;-78
2023/09/16 08:35:48;;;;;;;15.00;11.80;;;;;;;17.57;89.29;101503.59;6249519;22;20033;-81
2023/09/16 08:38:14;;;;;;;13.63;11.20;;;;;;;17.79;87.03;101507.81;6249880;22;20387;-80
2023/09/16 08:40:41;;;;;;;14.10;11.65;;;;;;;17.89;86.68;101506.47;6222660;22;20473;-77
2023/09/16 08:43:21;;;;;;;13.05;11.13;;;;;;;17.95;86.13;101509.97;6223787;22;20023;-78
2023/09/16 08:46:00;;;;;;;15.88;11.95;;;;;;;18.18;86.78;101513.66;6250088;22;20017;-78
2023/09/16 08:48:32;;;;;;;11.82;10.20;;;;;;;18.44;85.37;101503.63;6249279;22;20012;-77
2023/09/16 08:51:01;;;;;;;13.95;10.95;;;;;;;18.72;84.40;101495.09;6249971;22;20016;-78
2023/09/16 08:53:30;;;;;;;11.80;10.30;;;;;;;19.01;83.52;101507.59;6221543;22;20426;-79
2023/09/16 08:55:59;;;;;;;11.75;10.48;;;;;;;19.15;82.23;101512.09;6250475;22;20036;-79
2023/09/16 08:58:26;;;;;;;11.82;10.63;;;;;;;19.23;81.21;101508.47;6251036;22;20365;-79
2023/09/16 09:00:53;;;;;;;14.93;11.02;;;;;;;19.26;80.07;101512.16;6250216;22;20473;-79
2023/09/16 09:03:21;;;;;;;13.07;11.43;;;;;;;19.43;80.13;101507.63;6248107;22;20017;-79
2023/09/16 09:05:48;;;;;;;12.52;10.43;;;;;;;19.66;80.04;101513.88;6249352;22;20017;-78
2023/09/16 09:08:15;;;;;;;12.48;11.25;;;;;;;19.86;78.41;101511.03;6250045;22;20017;-78
2023/09/16 09:10:41;;;;;;;14.65;11.18;;;;;;;19.97;78.51;101519.19;6249737;22;20096;-78
2023/09/16 09:13:13;;;;;;;14.18;10.55;;;;;;;20.04;77.78;101507.16;6223148;22;20040;-78
2023/09/16 09:15:41;;;;;;;17.17;10.77;;;;;;;20.06;75.86;101512.09;6248679;22;20414;-78
2023/09/16 09:18:11;;;;;;;14.13;10.02;;;;;;;20.26;76.06;101511.91;6247839;22;20068;-78
2023/09/16 09:20:38;;;;;;;11.52;10.25;;;;;;;20.51;75.01;101513.69;6248342;22;20021;-79
2023/09/16 09:23:05;;;;;;;11.00;9.90;;;;;;;20.67;73.60;101511.50;6248568;22;20090;-80
2023/09/16 09:25:32;;;;;;;15.05;10.05;;;;;;;20.85;73.04;101516.41;6248539;22;20020;-80
2023/09/16 09:27:59;;;;;;;11.75;10.25;;;;;;;20.97;72.11;101515.91;6221719;22;20017;-80
2023/09/16 09:30:29;;;;;;;14.93;9.88;;;;;;;21.03;72.07;101518.63;6220903;22;20443;-80
2023/09/16 09:32:57;;;;;;;15.13;10.20;;;;;;;21.13;71.09;101522.56;6248531;22;20040;-81
2023/09/16 09:35:26;;;;;;;11.98;9.88;;;;;;;21.20;71.54;101516.63;6247819;22;20016;-80
2023/09/16 09:37:53;;;;;;;16.35;10.20;;;;;;;21.39;71.29;101524.25;6248618;22;20013;-80
2023/09/16 09:40:21;;;;;;;17.33;10.30;;;;;;;21.56;70.35;101530.38;6247681;22;20406;-80
2023/09/16 09:42:50;;;;;;;15.48;10.00;;;;;;;21.74;69.62;101526.38;6248747;22;20013;-80
2023/09/16 09:45:18;;;;;;;11.50;9.63;;;;;;;21.86;68.87;101527.81;6248255;22;20450;-80
2023/09/16 09:47:46;;;;;;;10.38;8.50;;;;;;;21.98;66.21;101523.06;6221335;22;20013;-80
2023/09/16 09:50:15;;;;;;;8.75;7.95;;;;;;;22.13;64.00;101518.06;6248285;22;20021;-80
2023/09/16 09:52:53;;;;;;;9.30;8.10;;;;;;;22.36;65.92;101522.16;6248124;22;20016;-79
2023/09/16 09:55:21;;;;;;;9.40;8.50;;;;;;;22.46;64.77;101517.13;6247716;22;20012;-80
2023/09/16 09:57:50;;;;;;;10.60;8.40;;;;;;;22.48;64.49;101520.81;6248526;22;20013;-79
2023/09/16 10:00:19;;;;;;;8.40;7.55;;;;;;;22.61;62.51;101518.25;6220236;22;20016;-79
2023/09/16 10:02:47;;;;;;;8.20;7.45;;;;;;;22.68;63.35;101525.13;6222416;22;20418;-79
2023/09/16 10:05:22;;;;;;;12.95;7.18;;;;;;;22.66;62.76;101518.72;6222881;22;20439;-79
2023/09/16 10:07:51;;;;;;;7.80;7.07;;;;;;;22.82;62.62;101521.31;6250208;22;20009;-79
2023/09/16 10:10:23;;;;;;;10.50;7.18;;;;;;;22.88;62.19;101524.00;6249363;22;20048;-79
2023/09/16 10:12:52;;;;;;;11.25;7.60;;;;;;;22.83;61.98;101525.50;6249949;22;20013;-79
2023/09/16 10:15:27;;;;;;;7.75;7.00;;;;;;;22.79;62.16;101519.63;6248647;22;20021;-79
2023/09/16 10:17:55;;;;;;;12.05;7.00;;;;;;;22.84;61.51;101528.97;6249787;22;20016;-79
2023/09/16 10:20:22;;;;;;;7.07;6.47;;;;;;;22.89;62.26;101520.78;6222541;22;20027;-78
2023/09/16 10:22:50;;;;;;;8.25;6.82;;;;;;;23.18;62.11;101521.28;6222704;22;20016;-82
2023/09/16 10:25:17;;;;;;;9.25;6.40;;;;;;;23.35;62.26;101521.81;6250021;22;20052;-84
2023/09/16 10:27:52;;;;;;;11.57;7.07;;;;;;;23.38;60.10;101525.50;6250045;22;20469;-81
2023/09/16 10:30:20;;;;;;;7.00;6.40;;;;;;;23.41;58.50;101521.75;6221839;22;20458;-85
2023/09/16 10:32:47;;;;;;;9.73;7.15;;;;;;;23.37;59.07;101524.75;6223287;22;20017;-83
2023/09/16 10:35:14;;;;;;;9.32;6.93;;;;;;;23.39;59.15;101530.44;6249808;22;20099;-84
2023/09/16 10:37:44;;;;;;;20.05;7.53;;;;;;;23.56;59.17;101522.13;6249924;22;20019;-81
2023/09/16 10:40:10;;;;;;;7.13;6.53;;;;;;;23.72;58.29;101523.91;6250849;22;20028;-81
2023/09/16 10:42:39;;;;;;;6.57;5.97;;;;;;;23.76;57.87;101524.34;6249763;22;20132;-79
2023/09/16 10:45:11;;;;;;;9.05;6.85;;;;;;;23.79;56.89;101515.16;6249059;22;20462;-84
2023/09/16 10:47:38;;;;;;;8.10;6.53;;;;;;;23.89;57.19;101519.00;6249505;22;20470;-85
2023/09/16 10:50:05;;;;;;;7.82;7.10;;;;;;;23.97;55.91;101521.88;6250051;22;20016;-86
2023/09/16 10:52:40;;;;;;;9.00;6.50;;;;;;;24.13;56.75;101518.16;6249784;22;20016;-86
2023/09/16 10:55:13;;;;;;;7.90;6.90;;;;;;;24.05;55.84;101517.28;6249442;22;20021;-84
2023/09/16 10:57:48;;;;;;;7.15;6.45;;;;;;;24.05;56.98;101511.13;6249404;22;20013;-84
2023/09/16 11:00:19;;;;;;;8.18;6.07;;;;;;;24.06;56.57;101513.31;6248786;22;20455;-82
2023/09/16 11:02:53;;;;;;;5.63;5.07;;;;;;;23.99;56.76;101515.91;6250050;22;20446;-87
2023/09/16 11:05:20;;;;;;;6.88;5.70;;;;;;;23.92;55.59;101511.78;6249105;22;20013;-83
2023/09/16 11:07:46;;;;;;;11.10;6.03;;;;;;;23.79;55.62;101509.72;6249612;22;20021;-84
2023/09/16 11:10:13;;;;;;;5.70;5.28;;;;;;;23.71;54.95;101506.13;6249704;22;20451;-84
2023/09/16 11:12:40;;;;;;;5.55;5.15;;;;;;;23.79;55.98;101498.84;6248800;22;20017;-83
2023/09/16 11:15:08;;;;;;;5.40;5.00;;;;;;;23.88;54.87;101487.63;6249503;22;20067;-83
2023/09/16 11:17:39;;;;;;;5.35;4.95;;;;;;;23.86;54.81;101486.66;6222460;22;20087;-82
2023/09/16 11:20:12;;;;;;;5.03;4.55;;;;;;;23.85;54.84;101485.94;6249920;22;20439;-81